Time;durP1;ratioP1;P1;durP2;ratioP2;P2;SDS_P1;SDS_P2;PMS_P1;PMS_P2;Temp;Humidity;BMP_temperature;BMP_pressure;BME280_temperature;BME280_humidity;BME280_pressure;Samples;Min_cycle;Max_cycle;Signal;HPM_P1;HPM_P2
2021/01/24 00:01:49;;;;;;;3.10;2.90;;;;;;;1.64;99.10;94425.13;5053144;28;20213;-74
2021/01/24 00:04:15;;;;;;;3.83;3.53;;;;;;;1.59;99.78;94434.56;5054074;28;20191;-74
2021/01/24 00:06:40;;;;;;;3.27;2.97;;;;;;;1.65;99.42;94439.59;5053122;28;20190;-74
2021/01/24 00:09:06;;;;;;;3.70;3.40;;;;;;;1.66;99.16;94430.06;5053616;28;20220;-74
2021/01/24 00:11:31;;;;;;;2.87;2.67;;;;;;;1.60;99.87;94438.72;5052932;28;20625;-74
2021/01/24 00:13:56;;;;;;;2.87;2.67;;;;;;;1.63;99.81;94436.47;5053155;28;20186;-74
2021/01/24 00:16:22;;;;;;;2.83;2.63;;;;;;;1.57;99.74;94441.75;5054010;28;20181;-74
2021/01/24 00:18:47;;;;;;;2.87;2.67;;;;;;;1.54;100.00;94452.53;5052691;28;20192;-74
2021/01/24 00:21:13;;;;;;;2.73;2.53;;;;;;;1.50;100.00;94456.59;5054021;28;20262;-74
2021/01/24 00:23:38;;;;;;;2.47;2.27;;;;;;;1.50;100.00;94451.44;5053343;28;20652;-75
2021/01/24 00:26:04;;;;;;;2.80;2.50;;;;;;;1.55;100.00;94452.31;5053652;28;20644;-74
2021/01/24 00:28:30;;;;;;;2.70;2.50;;;;;;;1.61;100.00;94448.03;5053502;28;20182;-74
2021/01/24 00:30:55;;;;;;;2.47;2.27;;;;;;;1.56;100.00;94447.94;5053226;28;20272;-74
2021/01/24 00:33:21;;;;;;;2.87;2.30;;;;;;;1.56;100.00;94455.69;5053378;28;20313;-74
2021/01/24 00:35:47;;;;;;;2.37;2.27;;;;;;;1.52;100.00;94455.34;5034203;28;20186;-74
2021/01/24 00:38:12;;;;;;;2.23;2.13;;;;;;;1.56;100.00;94455.69;5053861;28;20703;-74
2021/01/24 00:40:38;;;;;;;2.30;2.20;;;;;;;1.48;100.00;94451.66;5052443;28;20210;-74
2021/01/24 00:43:03;;;;;;;2.27;2.10;;;;;;;1.50;100.00;94459.19;5053222;28;20217;-74
2021/01/24 00:45:29;;;;;;;2.17;2.07;;;;;;;1.47;100.00;94459.63;5053389;28;20207;-74
2021/01/24 00:47:54;;;;;;;2.20;2.10;;;;;;;1.44;100.00;94450.53;5051550;28;20599;-75
2021/01/24 00:50:20;;;;;;;2.47;2.37;;;;;;;1.59;100.00;94458.59;5053552;28;20182;-73
2021/01/24 00:52:46;;;;;;;2.50;2.40;;;;;;;1.53;100.00;94463.88;5034492;28;20201;-73
2021/01/24 00:55:12;;;;;;;2.40;2.30;;;;;;;1.50;100.00;94461.75;5053534;28;20253;-73
2021/01/24 00:57:37;;;;;;;2.40;2.20;;;;;;;1.32;100.00;94460.09;5051510;28;20634;-73
2021/01/24 01:00:05;;;;;;;2.13;2.03;;;;;;;1.40;100.00;94470.06;5035229;28;20212;-74
2021/01/24 01:02:31;;;;;;;2.50;2.40;;;;;;;1.44;100.00;94472.97;5035019;28;20189;-76
2021/01/24 01:04:56;;;;;;;2.43;2.33;;;;;;;1.46;100.00;94476.88;5051229;28;20182;-73
2021/01/24 01:07:22;;;;;;;2.73;2.53;;;;;;;1.42;100.00;94473.19;5052714;28;20233;-73
2021/01/24 01:09:47;;;;;;;2.63;2.50;;;;;;;1.35;100.00;94482.84;5051442;28;20190;-73
2021/01/24 01:12:13;;;;;;;2.80;2.60;;;;;;;1.39;100.00;94476.25;5053081;28;20182;-73
2021/01/24 01:14:38;;;;;;;2.60;2.50;;;;;;;1.48;100.00;94477.47;5051856;28;20190;-74
2021/01/24 01:17:03;;;;;;;2.13;2.03;;;;;;;1.51;100.00;94486.53;5051039;28;20189;-74
2021/01/24 01:19:29;;;;;;;2.73;2.53;;;;;;;1.46;100.00;94482.06;5053038;28;20314;-73
2021/01/24 01:21:54;;;;;;;2.47;2.37;;;;;;;1.34;100.00;94481.28;5051786;28;20308;-74
2021/01/24 01:24:20;;;;;;;2.90;2.70;;;;;;;1.51;100.00;94481.38;5052659;28;20627;-73
2021/01/24 01:26:45;;;;;;;2.43;2.23;;;;;;;1.43;100.00;94479.94;5052006;28;20178;-73
2021/01/24 01:29:10;;;;;;;2.70;2.50;;;;;;;1.50;100.00;94474.66;5051507;28;20904;-74
2021/01/24 01:31:36;;;;;;;2.53;2.33;;;;;;;1.38;100.00;94481.63;5051367;28;20217;-74
2021/01/24 01:34:01;;;;;;;2.47;2.30;;;;;;;1.43;100.00;94474.78;5052860;28;20188;-73
2021/01/24 01:36:27;;;;;;;2.70;2.50;;;;;;;1.44;100.00;94476.34;5052479;28;20190;-74
2021/01/24 01:38:52;;;;;;;2.60;2.40;;;;;;;1.46;99.87;94470.94;5051853;28;20209;-73
2021/01/24 01:41:17;;;;;;;2.30;2.20;;;;;;;1.42;99.73;94475.00;5052265;28;20201;-73
2021/01/24 01:43:43;;;;;;;2.20;2.10;;;;;;;1.40;100.00;94472.63;5051359;28;20189;-73
2021/01/24 01:46:13;;;;;;;2.50;2.30;;;;;;;1.37;100.00;94475.69;5052538;28;20200;-74
2021/01/24 01:48:38;;;;;;;2.60;2.40;;;;;;;1.45;99.64;94483.06;5051568;28;20186;-73
2021/01/24 01:51:04;;;;;;;2.40;2.30;;;;;;;1.34;99.79;94478.69;5052221;28;20197;-74
2021/01/24 01:53:30;;;;;;;2.40;2.30;;;;;;;1.39;99.98;94470.31;5052368;28;20221;-74
2021/01/24 01:55:55;;;;;;;2.57;2.40;;;;;;;1.43;100.00;94476.56;5051633;28;20217;-73
2021/01/24 01:58:21;;;;;;;2.50;2.30;;;;;;;1.29;100.00;94480.38;5052033;28;20201;-73
2021/01/24 02:00:49;;;;;;;5.10;2.30;;;;;;;1.46;99.60;94473.53;5049920;28;20685;-74
2021/01/24 02:03:48;;;;;;;2.00;1.90;;;;;;;1.55;98.75;94485.09;5035278;28;20205;-73
2021/01/24 02:06:23;;;;;;;2.20;2.10;;;;;;;1.60;98.55;94480.81;5048050;28;20247;-73
2021/01/24 02:09:07;;;;;;;2.10;2.00;;;;;;;1.59;98.24;94494.72;5050213;28;20188;-74
2021/01/24 02:11:51;;;;;;;2.13;2.00;;;;;;;1.50;99.64;94497.88;5033272;28;20194;-75
2021/01/24 02:14:29;;;;;;;2.10;2.00;;;;;;;1.39;99.02;94506.44;5051248;28;20286;-74
2021/01/24 02:17:00;;;;;;;2.60;1.80;;;;;;;1.45;99.59;94501.13;5050302;28;20192;-74
2021/01/24 02:19:55;;;;;;;1.70;1.60;;;;;;;1.40;100.00;94519.09;5036009;28;20178;-75
2021/01/24 02:22:22;;;;;;;1.63;1.53;;;;;;;1.23;100.00;94520.75;5043318;28;20178;-75
2021/01/24 02:24:55;;;;;;;1.33;1.33;;;;;;;1.06;100.00;94533.53;5050829;28;20193;-75
2021/01/24 02:27:33;;;;;;;1.60;1.50;;;;;;;1.05;100.00;94541.53;5051942;28;20645;-75
2021/01/24 02:30:16;;;;;;;1.20;1.20;;;;;;;1.01;100.00;94541.16;5050968;28;20182;-75
2021/01/24 02:32:45;;;;;;;0.80;0.80;;;;;;;1.01;98.75;94528.28;5050368;28;20303;-75
2021/01/24 02:35:11;;;;;;;1.13;1.13;;;;;;;1.00;97.45;94547.34;5051176;28;20190;-75
2021/01/24 02:37:38;;;;;;;1.00;1.00;;;;;;;1.06;98.00;94559.34;5050550;28;20660;-75
2021/01/24 02:40:05;;;;;;;0.90;0.90;;;;;;;1.05;98.53;94552.63;5051590;28;20545;-75
2021/01/24 02:42:31;;;;;;;1.00;1.00;;;;;;;1.12;97.67;94562.81;5051119;28;20258;-74
2021/01/24 02:44:58;;;;;;;0.83;0.83;;;;;;;1.09;97.20;94576.16;5050729;28;20631;-75
2021/01/24 02:47:24;;;;;;;1.00;1.00;;;;;;;1.04;97.63;94581.22;5051779;28;20201;-75
2021/01/24 02:49:50;;;;;;;0.90;0.90;;;;;;;1.12;98.05;94593.78;5050660;28;20194;-75
2021/01/24 02:52:17;;;;;;;0.90;0.90;;;;;;;1.10;96.90;94603.53;5051572;28;20197;-75
2021/01/24 02:54:43;;;;;;;0.90;0.90;;;;;;;1.11;96.43;94612.84;5050547;28;20224;-73
2021/01/24 02:57:09;;;;;;;0.80;0.80;;;;;;;1.09;96.73;94613.06;5051360;28;20197;-74
2021/01/24 02:59:36;;;;;;;0.87;0.87;;;;;;;1.10;97.64;94617.22;5050443;28;20178;-75
2021/01/24 03:02:01;;;;;;;0.80;0.80;;;;;;;1.02;96.55;94622.69;5050351;28;20323;-74
2021/01/24 03:04:27;;;;;;;0.90;0.90;;;;;;;0.99;96.54;94622.34;5033296;28;20272;-74
2021/01/24 03:06:53;;;;;;;0.90;0.90;;;;;;;0.96;95.59;94626.16;5050405;28;20189;-74
2021/01/24 03:09:18;;;;;;;1.00;1.00;;;;;;;0.96;94.50;94630.50;5050821;28;20359;-74
2021/01/24 03:11:46;;;;;;;1.70;1.10;;;;;;;0.85;93.96;94632.06;5049758;28;20596;-74
2021/01/24 03:14:18;;;;;;;1.10;1.10;;;;;;;0.85;93.51;94639.78;5050576;28;20551;-72
2021/01/24 03:16:47;;;;;;;1.20;1.20;;;;;;;0.75;91.98;94639.53;5050019;28;20166;-73
2021/01/24 03:19:16;;;;;;;1.60;1.50;;;;;;;0.73;91.49;94644.91;5051296;28;20269;-73
2021/01/24 03:21:42;;;;;;;1.40;1.40;;;;;;;0.72;93.51;94671.69;5049560;28;20193;-73
2021/01/24 03:24:08;;;;;;;2.00;1.90;;;;;;;0.65;95.62;94668.41;5051335;28;20239;-73
2021/01/24 03:26:34;;;;;;;1.57;1.53;;;;;;;0.46;98.73;94679.72;5050514;28;20217;-75
2021/01/24 03:29:00;;;;;;;2.03;1.93;;;;;;;0.46;99.56;94682.31;5049773;28;20193;-75
2021/01/24 03:31:25;;;;;;;1.87;1.77;;;;;;;0.47;99.62;94693.41;5050291;28;20182;-74
2021/01/24 03:33:53;;;;;;;1.97;1.87;;;;;;;0.41;100.00;94701.00;5050095;28;20435;-74
2021/01/24 03:36:18;;;;;;;2.13;2.03;;;;;;;0.33;100.00;94710.81;5050809;28;20192;-74
2021/01/24 03:38:44;;;;;;;2.27;2.17;;;;;;;0.22;100.00;94719.25;5050386;28;20265;-74
2021/01/24 03:41:10;;;;;;;2.27;2.17;;;;;;;0.23;100.00;94731.88;5050294;28;20583;-73
2021/01/24 03:43:35;;;;;;;2.30;2.20;;;;;;;0.20;100.00;94734.09;5049736;28;20185;-75
2021/01/24 03:46:00;;;;;;;2.87;2.60;;;;;;;0.18;100.00;94736.09;5050953;28;20619;-73
2021/01/24 03:48:26;;;;;;;2.63;2.43;;;;;;;0.18;99.88;94731.75;5048896;28;20182;-73
2021/01/24 03:50:51;;;;;;;2.10;2.00;;;;;;;0.16;98.84;94732.97;5049778;28;20197;-74
2021/01/24 03:53:17;;;;;;;2.47;2.27;;;;;;;0.05;96.59;94737.03;5049947;28;20206;-74
2021/01/24 03:55:42;;;;;;;3.03;2.73;;;;;;;0.02;94.86;94744.38;5032021;28;20178;-73
2021/01/24 03:58:07;;;;;;;2.80;2.60;;;;;;;0.08;94.50;94746.09;5049393;28;20251;-73
2021/01/24 04:00:33;;;;;;;2.40;2.27;;;;;;;0.04;95.64;94737.22;5049939;28;20205;-74
2021/01/24 04:02:58;;;;;;;2.57;2.27;;;;;;;0.09;94.98;94750.25;5050468;28;20660;-73
2021/01/24 04:05:24;;;;;;;2.70;2.50;;;;;;;0.13;94.74;94746.25;5050253;28;20627;-73
2021/01/24 04:07:49;;;;;;;2.73;2.53;;;;;;;0.14;94.04;94747.84;5049806;28;20547;-73
2021/01/24 04:10:14;;;;;;;3.23;2.40;;;;;;;0.18;92.90;94751.56;5050168;28;20280;-73
2021/01/24 04:12:40;;;;;;;3.00;2.80;;;;;;;0.13;92.06;94759.13;5052212;28;20263;-73
2021/01/24 04:15:06;;;;;;;2.40;2.30;;;;;;;0.17;92.52;94760.31;5053920;28;20178;-73
2021/01/24 04:17:32;;;;;;;2.53;2.33;;;;;;;0.21;92.17;94764.81;5053522;28;20181;-74
2021/01/24 04:19:57;;;;;;;2.70;2.50;;;;;;;0.25;92.27;94770.31;5037064;28;20209;-73
2021/01/24 04:22:23;;;;;;;2.60;2.40;;;;;;;0.15;89.65;94765.66;5053418;28;20182;-73
2021/01/24 04:24:48;;;;;;;2.30;2.20;;;;;;;0.19;90.58;94781.47;5053573;28;20643;-73
2021/01/24 04:27:13;;;;;;;2.60;2.40;;;;;;;0.16;91.15;94779.31;5054701;28;20261;-73
2021/01/24 04:29:39;;;;;;;2.50;2.30;;;;;;;0.16;90.42;94789.63;5052566;28;20178;-73
2021/01/24 04:32:04;;;;;;;2.93;2.57;;;;;;;0.13;91.13;94793.41;5053522;28;20295;-74
2021/01/24 04:34:30;;;;;;;4.33;2.70;;;;;;;0.15;90.24;94790.63;5051979;28;20200;-73
2021/01/24 04:36:55;;;;;;;2.60;2.40;;;;;;;0.15;90.41;94788.03;5052951;28;20269;-72
2021/01/24 04:39:21;;;;;;;2.57;2.37;;;;;;;0.08;90.03;94795.03;5053019;28;20189;-73
2021/01/24 04:41:48;;;;;;;2.90;2.60;;;;;;;0.05;90.69;94803.19;5052351;28;20232;-73
2021/01/24 04:44:15;;;;;;;3.00;2.67;;;;;;;0.02;89.20;94798.44;5053321;28;20182;-72
2021/01/24 04:46:41;;;;;;;2.60;2.40;;;;;;;-0.02;88.64;94808.38;5052985;28;20185;-74
2021/01/24 04:49:06;;;;;;;2.97;2.77;;;;;;;-0.16;88.82;94797.38;5052925;28;20209;-74
2021/01/24 04:51:32;;;;;;;2.60;2.40;;;;;;;-0.24;86.78;94802.00;5053158;28;20612;-75
2021/01/24 04:53:58;;;;;;;2.80;2.53;;;;;;;-0.32;83.17;94804.81;5051475;28;20181;-73
2021/01/24 04:56:24;;;;;;;2.60;2.40;;;;;;;-0.32;83.17;94808.19;5053794;28;20588;-73
2021/01/24 04:58:53;;;;;;;2.60;2.10;;;;;;;-0.35;81.97;94820.69;5052567;28;20265;-73
2021/01/24 05:01:20;;;;;;;2.70;2.30;;;;;;;-0.37;80.65;94831.19;5052911;28;20224;-73
2021/01/24 05:03:47;;;;;;;2.23;2.13;;;;;;;-0.37;79.48;94836.31;5051932;28;20546;-73
2021/01/24 05:06:13;;;;;;;2.37;2.00;;;;;;;-0.42;80.21;94836.94;5045651;28;20622;-74
2021/01/24 05:08:46;;;;;;;2.43;2.23;;;;;;;-0.45;80.94;94839.91;5052250;28;20186;-72
2021/01/24 05:11:12;;;;;;;2.10;2.00;;;;;;;-0.41;81.01;94842.88;5052714;28;20182;-72
2021/01/24 05:13:37;;;;;;;3.30;2.17;;;;;;;-0.40;81.13;94843.69;5052065;28;20203;-73
2021/01/24 05:16:05;;;;;;;2.77;2.37;;;;;;;-0.43;81.33;94847.44;5052966;28;20581;-73
2021/01/24 05:18:31;;;;;;;2.40;2.20;;;;;;;-0.43;80.71;94844.88;5052925;28;20190;-76
2021/01/24 05:20:57;;;;;;;2.93;2.43;;;;;;;-0.45;81.85;94845.06;5051118;28;20202;-73
2021/01/24 05:23:24;;;;;;;2.77;2.57;;;;;;;-0.45;82.29;94844.31;5052413;28;20190;-72
2021/01/24 05:25:53;;;;;;;3.03;2.57;;;;;;;-0.45;83.36;94846.88;5052552;28;20552;-73
2021/01/24 05:28:21;;;;;;;2.87;2.50;;;;;;;-0.48;84.52;94853.22;5052479;28;20182;-73
2021/01/24 05:30:47;;;;;;;4.93;2.57;;;;;;;-0.46;85.48;94853.81;5051509;28;20186;-72
2021/01/24 05:33:18;;;;;;;2.90;2.60;;;;;;;-0.51;85.96;94866.50;5050868;28;20356;-73
2021/01/24 05:35:51;;;;;;;2.90;2.70;;;;;;;-0.60;87.05;94872.84;5051809;28;20189;-73
2021/01/24 05:38:30;;;;;;;3.30;2.87;;;;;;;-0.54;87.07;94868.66;5052744;28;20189;-73
2021/01/24 05:41:03;;;;;;;5.70;3.23;;;;;;;-0.58;87.77;94873.44;5051338;28;20205;-73
2021/01/24 05:43:35;;;;;;;3.37;2.80;;;;;;;-0.55;87.93;94873.03;5052697;28;20182;-73
2021/01/24 05:46:00;;;;;;;3.97;2.70;;;;;;;-0.59;87.19;94871.84;5052767;28;20331;-73
2021/01/24 05:48:25;;;;;;;3.90;2.80;;;;;;;-0.63;87.14;94873.28;5034371;28;20272;-72
2021/01/24 05:50:51;;;;;;;2.97;2.77;;;;;;;-0.54;87.09;94877.19;5033354;28;20185;-71
2021/01/24 05:53:17;;;;;;;2.83;2.63;;;;;;;-0.53;85.04;94876.19;5052295;28;20285;-71
2021/01/24 05:55:44;;;;;;;3.67;2.80;;;;;;;-0.64;85.65;94889.69;5051541;28;20186;-71
2021/01/24 05:58:20;;;;;;;3.20;2.90;;;;;;;-0.73;86.50;94893.50;5052064;28;20196;-71
2021/01/24 06:00:48;;;;;;;4.27;2.73;;;;;;;-0.70;85.50;94903.38;5050908;28;20713;-71
2021/01/24 06:03:14;;;;;;;3.73;3.03;;;;;;;-0.71;86.71;94906.91;5051910;28;20240;-71
2021/01/24 06:05:40;;;;;;;3.20;2.90;;;;;;;-0.73;86.44;94903.78;5050686;28;20265;-71
2021/01/24 06:08:07;;;;;;;3.27;2.97;;;;;;;-0.62;85.92;94908.28;5052176;28;20216;-74
2021/01/24 06:10:33;;;;;;;3.67;3.17;;;;;;;-0.60;85.05;94916.59;5051331;28;20189;-75
2021/01/24 06:13:02;;;;;;;4.07;3.30;;;;;;;-0.65;86.35;94920.75;5051705;28;20188;-71
2021/01/24 06:15:29;;;;;;;3.30;3.00;;;;;;;-0.61;85.41;94916.78;5051684;28;20186;-71
2021/01/24 06:18:03;;;;;;;3.63;3.20;;;;;;;-0.65;86.28;94926.69;5051645;28;20279;-71
2021/01/24 06:20:38;;;;;;;4.77;3.07;;;;;;;-0.65;86.22;94921.53;5050687;28;20198;-71
2021/01/24 06:23:17;;;;;;;3.90;3.43;;;;;;;-0.66;86.89;94927.69;5052242;28;20195;-71
2021/01/24 06:25:45;;;;;;;3.93;3.10;;;;;;;-0.75;87.34;94933.25;5051357;28;20162;-71
2021/01/24 06:28:17;;;;;;;3.47;3.13;;;;;;;-0.75;87.19;94928.09;5051454;28;20609;-71
2021/01/24 06:30:46;;;;;;;3.30;3.00;;;;;;;-0.80;87.87;94933.88;5050799;28;20256;-71
2021/01/24 06:33:20;;;;;;;3.43;3.13;;;;;;;-0.73;87.65;94934.66;5051598;28;20226;-72
2021/01/24 06:35:48;;;;;;;3.60;3.20;;;;;;;-0.74;88.19;94937.41;5049421;28;20626;-72
2021/01/24 06:38:39;;;;;;;4.90;3.57;;;;;;;-0.70;87.92;94943.72;5052116;28;20271;-71
2021/01/24 06:41:10;;;;;;;4.20;3.00;;;;;;;-0.66;87.43;94947.47;5049982;28;20689;-71
2021/01/24 06:43:37;;;;;;;4.30;3.10;;;;;;;-0.68;87.35;94939.19;5050746;28;20185;-74
2021/01/24 06:46:04;;;;;;;4.57;3.20;;;;;;;-0.74;87.58;94956.19;5035654;28;20188;-72
2021/01/24 06:48:47;;;;;;;4.03;3.47;;;;;;;-0.91;89.13;94947.34;5033872;28;20192;-71
2021/01/24 06:51:41;;;;;;;5.90;3.50;;;;;;;-0.87;88.41;94954.44;5050299;28;20162;-72
2021/01/24 06:54:15;;;;;;;4.77;3.57;;;;;;;-0.95;88.27;94954.63;5036083;28;20251;-72
2021/01/24 06:56:46;;;;;;;3.70;3.40;;;;;;;-1.02;89.11;94953.88;5050235;28;20188;-73
2021/01/24 06:59:13;;;;;;;3.60;3.30;;;;;;;-0.98;88.40;94959.41;5051233;28;20185;-72
2021/01/24 07:01:40;;;;;;;5.10;3.10;;;;;;;-0.95;87.53;94966.72;5032302;28;20293;-72
2021/01/24 07:04:19;;;;;;;5.37;3.40;;;;;;;-0.96;87.68;94965.94;5025951;28;20182;-72
2021/01/24 07:06:45;;;;;;;7.27;3.17;;;;;;;-1.01;88.43;94967.53;5041372;28;20231;-72
2021/01/24 07:09:26;;;;;;;3.80;3.07;;;;;;;-0.85;90.23;94982.53;5039885;28;20627;-74
2021/01/24 07:11:54;;;;;;;6.30;3.60;;;;;;;-0.20;93.51;94993.63;5042209;28;20283;-74
2021/01/24 07:14:34;;;;;;;4.33;3.00;;;;;;;0.02;86.84;94992.34;5048434;28;20235;-72
2021/01/24 07:17:09;;;;;;;5.00;3.10;;;;;;;-0.24;86.20;94989.91;5049528;28;20186;-75
2021/01/24 07:19:38;;;;;;;3.87;3.10;;;;;;;-0.29;86.93;94982.78;5050314;28;20188;-75
2021/01/24 07:22:07;;;;;;;5.00;3.30;;;;;;;-0.37;87.79;94977.84;5032925;28;20178;-75
2021/01/24 07:24:33;;;;;;;4.03;3.20;;;;;;;-0.39;87.70;94984.97;5050643;28;20186;-75
2021/01/24 07:26:58;;;;;;;5.43;3.73;;;;;;;-0.47;87.09;94985.22;5049399;28;20204;-75
2021/01/24 07:29:25;;;;;;;4.80;3.50;;;;;;;-0.52;87.71;94987.59;5050443;28;20654;-74
2021/01/24 07:31:50;;;;;;;3.13;2.77;;;;;;;-0.62;87.70;94988.03;5050023;28;20229;-71
2021/01/24 07:34:20;;;;;;;4.23;2.80;;;;;;;-0.70;88.37;94984.88;5050844;28;20181;-74
2021/01/24 07:36:47;;;;;;;4.27;3.13;;;;;;;-0.59;87.25;95000.47;5049093;28;20186;-75
2021/01/24 07:39:12;;;;;;;3.20;2.90;;;;;;;-0.61;86.87;94991.38;5049653;28;20193;-74
2021/01/24 07:41:38;;;;;;;6.33;4.00;;;;;;;-0.65;86.56;94997.91;5049898;28;20202;-75
2021/01/24 07:44:03;;;;;;;3.60;3.00;;;;;;;-0.63;86.33;94991.59;5049578;28;20182;-74
2021/01/24 07:46:29;;;;;;;3.57;3.17;;;;;;;-0.71;87.06;94996.94;5053533;28;20534;-74
2021/01/24 07:48:54;;;;;;;3.10;2.80;;;;;;;-0.67;86.37;95000.69;5053402;28;20190;-76
2021/01/24 07:51:20;;;;;;;4.87;3.23;;;;;;;-0.61;86.80;95001.66;5054883;28;20244;-75
2021/01/24 07:53:46;;;;;;;5.17;3.10;;;;;;;-0.59;86.01;95002.25;5053836;28;20170;-76
2021/01/24 07:56:11;;;;;;;3.17;2.80;;;;;;;-0.60;86.24;95005.81;5052960;28;20246;-75
2021/01/24 07:58:37;;;;;;;3.77;3.33;;;;;;;-0.39;85.75;95013.28;5052623;28;20194;-77
2021/01/24 08:01:03;;;;;;;4.13;2.90;;;;;;;-0.23;84.92;95007.72;5054711;28;20198;-71
2021/01/24 08:03:29;;;;;;;6.03;2.80;;;;;;;0.00;83.16;95002.09;5054284;28;20190;-75
2021/01/24 08:06:06;;;;;;;2.40;2.20;;;;;;;0.08;82.47;94996.69;5052656;28;20355;-75
2021/01/24 08:08:31;;;;;;;3.33;2.80;;;;;;;0.08;81.64;95016.50;5054794;28;20209;-74
2021/01/24 08:10:57;;;;;;;3.73;2.60;;;;;;;0.08;81.31;95026.78;5053274;28;20240;-75
2021/01/24 08:13:23;;;;;;;2.60;2.40;;;;;;;-0.03;80.80;95010.19;5053549;28;20189;-75
2021/01/24 08:15:50;;;;;;;3.47;2.60;;;;;;;-0.17;80.58;95012.03;5053210;28;20232;-76
2021/01/24 08:18:16;;;;;;;3.60;2.60;;;;;;;-0.15;80.65;95024.69;5054128;28;20185;-76
2021/01/24 08:20:41;;;;;;;2.80;2.60;;;;;;;-0.07;80.56;95025.28;5052928;28;20217;-76
2021/01/24 08:23:07;;;;;;;3.63;2.47;;;;;;;-0.08;80.06;95030.63;5053507;28;20308;-75
2021/01/24 08:25:33;;;;;;;2.60;2.40;;;;;;;-0.07;79.39;95027.06;5053694;28;20260;-76
2021/01/24 08:27:59;;;;;;;2.23;2.03;;;;;;;-0.17;79.80;95031.84;5052492;28;20589;-75
2021/01/24 08:30:24;;;;;;;2.70;2.50;;;;;;;-0.26;80.79;95028.69;5053017;28;20708;-75
2021/01/24 08:32:50;;;;;;;3.10;2.50;;;;;;;-0.20;80.61;95037.41;5048050;28;20565;-75
2021/01/24 08:35:16;;;;;;;3.13;2.20;;;;;;;-0.06;79.73;95028.66;5051694;28;20177;-76
2021/01/24 08:37:41;;;;;;;3.40;2.87;;;;;;;0.05;79.78;95040.09;5052822;28;20533;-75
2021/01/24 08:40:07;;;;;;;2.90;2.50;;;;;;;0.19;79.16;95031.31;5053420;28;20189;-77
2021/01/24 08:43:03;;;;;;;2.63;2.50;;;;;;;0.12;78.79;95039.06;5053121;28;20194;-76
2021/01/24 08:45:29;;;;;;;2.93;2.40;;;;;;;0.20;79.60;95038.03;5035963;28;20204;-75
2021/01/24 08:47:59;;;;;;;2.87;2.37;;;;;;;0.34;79.83;95049.84;5034886;28;20266;-72
2021/01/24 08:50:31;;;;;;;3.17;2.60;;;;;;;0.48;78.87;95040.28;5052839;28;20204;-82
2021/01/24 08:52:58;;;;;;;2.20;2.10;;;;;;;0.65;78.91;95049.09;5052570;28;20176;-75
2021/01/24 08:55:23;;;;;;;2.70;2.50;;;;;;;0.72;77.58;95042.91;5052879;28;20277;-73
2021/01/24 08:57:49;;;;;;;2.70;2.50;;;;;;;0.78;78.36;95057.53;5050720;28;20693;-78
2021/01/24 09:00:16;;;;;;;2.77;2.10;;;;;;;0.82;78.71;95057.94;5051764;28;20202;-71
2021/01/24 09:02:42;;;;;;;3.67;2.40;;;;;;;0.78;77.83;95052.38;5046514;28;20281;-75
2021/01/24 09:05:13;;;;;;;2.23;2.03;;;;;;;0.63;77.86;95072.50;5040503;28;20702;-76
2021/01/24 09:07:41;;;;;;;2.63;2.20;;;;;;;0.58;79.15;95080.06;5039338;28;20498;-78
2021/01/24 09:10:23;;;;;;;2.53;2.27;;;;;;;0.67;79.38;95078.06;5042217;28;20208;-79
2021/01/24 09:12:54;;;;;;;2.60;2.13;;;;;;;0.73;78.39;95082.34;5033354;28;20200;-77
2021/01/24 09:15:21;;;;;;;2.97;2.40;;;;;;;0.62;78.27;95088.16;5052970;28;20261;-79
2021/01/24 09:17:51;;;;;;;2.30;2.10;;;;;;;0.55;78.38;95088.22;5051866;28;20249;-77
2021/01/24 09:20:18;;;;;;;2.77;2.50;;;;;;;0.55;78.78;95085.66;5034767;28;20288;-76
2021/01/24 09:22:43;;;;;;;2.37;2.17;;;;;;;0.41;79.50;95091.84;5051209;28;20635;-78
2021/01/24 09:25:10;;;;;;;2.40;2.20;;;;;;;0.54;80.19;95091.00;5051598;28;20201;-78
2021/01/24 09:27:36;;;;;;;2.53;2.33;;;;;;;0.69;80.27;95089.72;5052271;28;20691;-78
2021/01/24 09:30:03;;;;;;;2.87;2.53;;;;;;;0.76;79.43;95100.00;5051391;28;20185;-76
2021/01/24 09:32:28;;;;;;;2.57;2.37;;;;;;;0.79;80.56;95100.38;5052541;28;20233;-77
2021/01/24 09:34:54;;;;;;;3.13;2.60;;;;;;;0.91;81.08;95099.72;5051765;28;20189;-78
2021/01/24 09:37:19;;;;;;;2.77;2.40;;;;;;;0.87;80.79;95109.66;5034578;28;20251;-78
2021/01/24 09:39:44;;;;;;;2.90;2.60;;;;;;;0.75;82.46;95106.94;5052051;28;20269;-78
2021/01/24 09:42:10;;;;;;;3.23;2.63;;;;;;;0.59;83.84;95115.16;5051480;28;20189;-79
2021/01/24 09:44:35;;;;;;;3.40;2.77;;;;;;;0.73;85.02;95116.66;5052805;28;20517;-79
2021/01/24 09:47:01;;;;;;;3.33;2.60;;;;;;;0.68;83.97;95113.13;5052799;28;20182;-79
2021/01/24 09:49:27;;;;;;;3.10;2.80;;;;;;;0.62;84.73;95108.78;5052837;28;20190;-79
2021/01/24 09:51:52;;;;;;;5.93;3.17;;;;;;;0.66;86.26;95110.78;5051222;28;20198;-79
2021/01/24 09:54:18;;;;;;;3.53;2.80;;;;;;;0.70;85.50;95113.72;5052248;28;20273;-79
2021/01/24 09:56:44;;;;;;;3.03;2.83;;;;;;;0.86;85.44;95115.81;5052116;28;20209;-79
2021/01/24 09:59:11;;;;;;;3.63;2.80;;;;;;;0.97;83.95;95119.50;5052050;28;20197;-79
2021/01/24 10:01:37;;;;;;;2.57;2.37;;;;;;;0.88;85.67;95125.91;5051928;28;20224;-78
2021/01/24 10:04:03;;;;;;;2.97;2.60;;;;;;;0.83;83.69;95122.19;5052294;28;20239;-78
2021/01/24 10:06:28;;;;;;;4.80;2.70;;;;;;;0.89;83.83;95128.31;5051909;28;20230;-78
2021/01/24 10:08:54;;;;;;;7.60;2.80;;;;;;;0.96;82.68;95133.41;5049655;28;20193;-78
2021/01/24 10:11:21;;;;;;;2.67;2.30;;;;;;;0.95;82.26;95124.88;5052257;28;20190;-78
2021/01/24 10:13:47;;;;;;;5.00;2.63;;;;;;;0.98;82.22;95134.00;5051378;28;20658;-77
2021/01/24 10:16:13;;;;;;;2.83;2.57;;;;;;;1.02;82.90;95130.78;5051691;28;20209;-76
2021/01/24 10:18:38;;;;;;;3.00;2.50;;;;;;;1.22;82.75;95136.63;5051478;28;20240;-77
2021/01/24 10:21:04;;;;;;;2.60;2.40;;;;;;;1.27;81.48;95143.75;5051298;28;20247;-77
2021/01/24 10:23:30;;;;;;;2.40;2.30;;;;;;;1.31;81.27;95144.88;5051190;28;20216;-78
2021/01/24 10:25:56;;;;;;;3.13;2.80;;;;;;;1.21;81.08;95142.00;5050516;28;20178;-77
2021/01/24 10:28:23;;;;;;;2.73;2.53;;;;;;;1.25;81.05;95146.50;5055441;28;20300;-78
2021/01/24 10:30:50;;;;;;;2.63;2.23;;;;;;;1.24;80.98;95149.31;5052815;28;20185;-78
2021/01/24 10:33:16;;;;;;;2.10;2.00;;;;;;;1.27;79.20;95142.94;5052167;28;20218;-80
2021/01/24 10:35:42;;;;;;;3.13;2.67;;;;;;;1.37;78.36;95144.06;5045319;28;20434;-78
2021/01/24 10:38:08;;;;;;;2.27;2.17;;;;;;;1.27;77.04;95145.53;5049571;28;20650;-78
2021/01/24 10:40:34;;;;;;;2.33;2.17;;;;;;;1.18;77.19;95124.34;5051365;28;20244;-77
2021/01/24 10:43:00;;;;;;;2.40;2.20;;;;;;;1.17;76.30;95146.75;5049608;28;20333;-75
2021/01/24 10:45:25;;;;;;;2.00;1.90;;;;;;;1.22;75.60;95153.91;5050047;28;20715;-77
2021/01/24 10:47:52;;;;;;;2.30;2.20;;;;;;;1.34;75.38;95147.03;5048690;28;20722;-76
2021/01/24 10:50:17;;;;;;;2.10;2.00;;;;;;;1.37;75.29;95145.84;5033064;28;20666;-77
2021/01/24 10:52:43;;;;;;;2.27;2.10;;;;;;;1.43;73.94;95135.47;5050526;28;20178;-76
2021/01/24 10:55:08;;;;;;;2.10;1.90;;;;;;;1.56;73.52;95153.44;5050532;28;20658;-76
2021/01/24 10:57:34;;;;;;;2.27;2.00;;;;;;;1.55;72.10;95145.91;5051180;28;20178;-75
2021/01/24 11:00:00;;;;;;;2.00;1.83;;;;;;;1.44;72.66;95133.69;5050326;28;20197;-76
2021/01/24 11:02:25;;;;;;;2.33;1.90;;;;;;;1.56;71.15;95142.34;5050888;28;20177;-76
2021/01/24 11:04:50;;;;;;;1.67;1.57;;;;;;;1.67;71.01;95128.75;5049927;28;20519;-77
2021/01/24 11:07:16;;;;;;;1.90;1.80;;;;;;;1.71;70.74;95142.00;5050785;28;20622;-75
2021/01/24 11:09:43;;;;;;;2.07;1.87;;;;;;;1.75;70.64;95148.31;5048410;28;20193;-79
2021/01/24 11:12:09;;;;;;;2.07;1.87;;;;;;;1.81;68.91;95156.00;5042077;28;20208;-77
2021/01/24 11:14:35;;;;;;;1.50;1.40;;;;;;;1.88;68.72;95154.16;5038632;28;20186;-78
2021/01/24 11:17:00;;;;;;;1.70;1.60;;;;;;;1.98;67.63;95149.31;5050222;28;20603;-78
2021/01/24 11:19:25;;;;;;;1.60;1.50;;;;;;;2.02;67.84;95147.88;5051124;28;20188;-76
2021/01/24 11:21:51;;;;;;;2.00;1.40;;;;;;;1.97;66.74;95152.88;5050496;28;20194;-78
2021/01/24 11:24:16;;;;;;;2.67;1.80;;;;;;;2.16;66.84;95155.50;5061615;28;20195;-78
2021/01/24 11:26:42;;;;;;;1.60;1.50;;;;;;;2.20;67.32;95162.59;5054356;28;20274;-80
2021/01/24 11:29:08;;;;;;;1.60;1.57;;;;;;;2.20;67.21;95161.81;5053758;28;20193;-78
2021/01/24 11:31:33;;;;;;;2.27;1.57;;;;;;;2.11;66.09;95169.06;5054465;28;20222;-78
2021/01/24 11:33:59;;;;;;;1.70;1.60;;;;;;;2.00;65.88;95170.56;5053529;28;20182;-79
2021/01/24 11:36:25;;;;;;;1.73;1.63;;;;;;;2.00;66.58;95177.53;5054924;28;20217;-75
2021/01/24 11:38:51;;;;;;;2.10;1.90;;;;;;;1.79;65.85;95181.25;5053603;28;20186;-75